Alma Center, WI

10:30 AM CDT on May 25, 2015 (GMT -0500)
Black River Falls Area | | Change Station
CLOSE
Current Station
Airport
Location: Black River Falls,
Elevation: 837 ft
Nearby Weather Stations

Elev 837 ft 44.25 °N, 90.86 °W | Updated 15 minutes ago

Overcast
Overcast
67 °F
Feels Like 67 °F
N
10
Wind Variable Wind from SW

Today
High -- | Low -- °F
--% Chance of Precip.
Yesterday
High -- | Low -- °F
Precip. -- in
5:27 AM 8:34 PM
Waxing Crescent, 49% visible
Pressure 29.72 in
Visibility 7.0 miles
Clouds Mostly Cloudy 1100 ft
Overcast 1700 ft
Dew Point 65 °F
Humidity 95%
Rainfall 0.25 in
Snow Depth Not available.
UV 2 out of 12
Pollen .90 out of 12
Air Quality Not available.
Flu Activity Sporadic
METAR KBCK 251515Z AUTO 22009KT 7SM -RA BKN011 OVC017 19/18 A2972 RMK AO2 T01920183

More Conditions Fewer Conditions

Pressure 29.72 in
Visibility 7.0 miles
Clouds Mostly Cloudy 1100 ft
Overcast 1700 ft
Dew Point 65 °F
Humidity 95%
Rainfall 0.25 in
Snow Depth Not available.
UV 2 out of 12
Pollen .90 out of 12
Air Quality Not available.
Flu Activity Sporadic
METAR KBCK 251515Z AUTO 22009KT 7SM -RA BKN011 OVC017 19/18 A2972 RMK AO2 T01920183

More Conditions Fewer Conditions

10-Day Weather Forecast

Almanac

Astronomy

May. 25, 2015 Rise Set
Actual Time
Civil Twilight
Nautical Twilight
Astronomical Twilight
Moon
Length of Visible Light
Length of Day
Tomorrow will be .
, % of the Moon is Illuminated

Today's Extremes

State Highs State Lows

Community

WunderPhotos

Upload Photos

1,824,030 photos uploaded!

WunderBlogs® & News

Nearby

Air Quality

  Air Quality AQ Index Pollutant
Not available.

Snow Depth

Station Depth Elevation

Earthquake Activity

City Distance Mag. Time & Date
Minimum magnitude displayed is 2.5.

Coastal Water Temperatures

Place Temperature

Stations

Nearby Weather Stations

Station Location Temp. Windchill Dew Point Humidity Wind Precip. Elev Updated Type